Aeroporto :
LOGIN :

Iscrizione | Disclaimer

   EN    FR    IT 

 










Sommario :    VFR   VFR Marginale   IFR   IFR Intensivo   IFR Molto Intensivo
Visibilità : 
Base nubi : 
>= 8 km
>= 3000ft
5 / 8 km
1000 / 3000 ft
1500m / 5 km
500 / 1000 ft
800 / 1500m
200 / 500 ft
< 800m
< 200 ft
Simboli :   Temporali  Nebbia  Neve Forte  Precipitazioni Forti  Vento > 20 kt
SIGMETs :   Varie  Temporali  Ghiacco  Turbolenza  Onda orograficha  Ceneri Vulcaniche






- Altitudine del aeroporto : 1161 ft
- Codice IATA : RJL


LELO - Logroño-Agoncillo

ULTIMO METAR :
  • 061800Z AUTO 15008KT 120V180 5000 VCTS SHRA BR BKN024/// BKN030/// OVC039/// ///CB 16/15 Q1009

METARs OBSOLETI :
  • 061730Z AUTO 06004KT 350V140 9999 -RA BKN039 BKN050 16/14 Q1008
  • 061700Z AUTO VRB04G18KT 2500 VCTS +SHRA BR SCT029/// BKN039/// ///CB 16/15 Q1008 RETS
  • 061630Z AUTO 03008KT 340V080 9999 TS OVC039/// ///CB 21/14 Q1007
  • 061600Z AUTO 05006KT 010V100 9999 OVC043 22/14 Q1006
  • 061530Z AUTO 03005KT 320V080 9999 BKN044 OVC050 23/14 Q1007

TAF TAF LELO
Valido dal 06 a 18 ore il 07 a 03 ore UTC


061700Z 0618/0703 VRB05KT 9999 SCT040
TEMPO 0618/0621 34010KT
TEMPO 0618/0624 RA SHRA SCT030TCU
PROB40
TEMPO 0618/0620 VRB15G25KT 3000 TSRA SCT030CB



MetMap, La meteo Aeronautica in un colpo d'occhio ! - Copyright ORBIFLY Dicembre 2007 - Disclaimer

ORBIFLY MET'MAP TEAM :

Programmazione e sviluppo : Alexandra Zaïnal
Concezione : Baudouin d'Aumeries
Aiuto per la programmazione : Marc-Olivier Méhu
Supporto tecnico e logistico : Manuel Goepfert
Aiuto per la traduzione : Arnaldo La Scala

Contatto : metmap@orbifly.com




FONTI E CREDITI :

   NOAA